createdAt,value
2023-04-24T00:00:18.661Z,1.00
2023-04-24T00:02:48.330Z,2.17
2023-04-24T00:05:18.294Z,1.05
2023-04-24T00:07:47.024Z,0.82
2023-04-24T00:10:16.168Z,1.00
2023-04-24T00:12:44.039Z,1.25
2023-04-24T00:15:13.005Z,1.02
2023-04-24T00:17:41.155Z,0.98
2023-04-24T00:20:11.654Z,1.23
2023-04-24T00:22:39.475Z,1.15
2023-04-24T00:25:08.011Z,1.27
2023-04-24T00:27:38.352Z,1.17
2023-04-24T00:30:07.558Z,1.30
2023-04-24T00:32:35.378Z,1.38
2023-04-24T00:35:04.945Z,1.52
2023-04-24T00:37:32.852Z,1.70
2023-04-24T00:40:00.693Z,1.70
2023-04-24T00:42:28.770Z,1.70
2023-04-24T00:44:58.649Z,1.50
2023-04-24T00:47:27.831Z,1.70
2023-04-24T00:49:55.770Z,1.88
2023-04-24T00:52:25.277Z,2.25
2023-04-24T00:54:53.247Z,1.60
2023-04-24T00:57:21.434Z,1.75
2023-04-24T00:59:49.453Z,1.95
2023-04-24T01:02:19.827Z,1.88
2023-04-24T01:04:47.932Z,2.20
2023-04-24T01:07:15.739Z,2.30
2023-04-24T01:09:45.272Z,1.88
2023-04-24T01:12:13.315Z,1.70
2023-04-24T01:14:41.362Z,1.88
2023-04-24T01:17:10.275Z,1.88
2023-04-24T01:19:39.520Z,1.77
2023-04-24T01:22:12.872Z,1.90
2023-04-24T01:24:40.911Z,2.08
2023-04-24T01:27:09.325Z,2.50
2023-04-24T01:29:37.350Z,2.90
2023-04-24T01:32:06.015Z,2.50
2023-04-24T01:34:34.239Z,2.55
2023-04-24T01:37:02.297Z,2.80
2023-04-24T01:39:33.008Z,2.20
2023-04-24T01:42:02.655Z,2.70
2023-04-24T01:44:30.670Z,2.58
2023-04-24T01:46:58.932Z,2.30
2023-04-24T01:49:26.985Z,2.60
2023-04-24T01:51:54.765Z,2.63
2023-04-24T01:54:22.514Z,2.17
2023-04-24T01:56:52.169Z,2.78
2023-04-24T01:59:20.720Z,2.55
2023-04-24T02:01:48.714Z,3.15
2023-04-24T02:04:17.116Z,2.90
2023-04-24T02:06:45.126Z,3.20
2023-04-24T02:09:12.950Z,3.63
2023-04-24T02:11:40.850Z,3.58
2023-04-24T02:14:09.964Z,4.13
2023-04-24T02:16:37.833Z,3.60
2023-04-24T02:19:06.183Z,3.53
2023-04-24T02:21:34.295Z,3.40
2023-04-24T02:24:02.149Z,3.40
2023-04-24T02:26:30.033Z,3.72
2023-04-24T02:28:57.751Z,3.13
2023-04-24T02:31:26.974Z,4.20
2023-04-24T02:33:54.852Z,3.40
2023-04-24T02:36:22.801Z,3.50
2023-04-24T02:38:50.655Z,3.45
2023-04-24T02:41:18.537Z,3.42
2023-04-24T02:43:46.407Z,2.85
2023-04-24T02:46:14.344Z,3.00
2023-04-24T02:48:43.519Z,2.92
2023-04-24T02:51:11.281Z,2.75
2023-04-24T02:53:39.049Z,3.03
2023-04-24T02:56:06.998Z,3.03
2023-04-24T02:58:34.925Z,3.60
2023-04-24T03:01:02.825Z,3.67
2023-04-24T03:03:30.740Z,3.35
2023-04-24T03:06:00.191Z,3.45
2023-04-24T03:08:28.013Z,2.75
2023-04-24T03:10:55.882Z,1.90
2023-04-24T03:13:23.669Z,1.83
2023-04-24T03:15:52.344Z,1.65
2023-04-24T03:18:20.124Z,1.70
2023-04-24T03:20:48.520Z,1.58
2023-04-24T03:23:17.642Z,1.70
2023-04-24T03:25:45.430Z,1.90
2023-04-24T03:28:13.191Z,1.92
2023-04-24T03:30:40.974Z,1.88
2023-04-24T03:33:08.715Z,1.40
2023-04-24T03:35:37.276Z,1.52
2023-04-24T03:38:05.923Z,1.48
2023-04-24T03:40:35.656Z,1.20
2023-04-24T03:43:03.483Z,0.88
2023-04-24T03:45:31.272Z,0.80
2023-04-24T03:47:59.144Z,0.80
2023-04-24T03:50:27.693Z,0.90
2023-04-24T03:52:55.447Z,1.17
2023-04-24T03:55:23.272Z,0.85
2023-04-24T03:57:52.538Z,1.05
2023-04-24T04:00:22.021Z,1.02
2023-04-24T04:02:49.887Z,1.00
2023-04-24T04:05:17.849Z,1.20
2023-04-24T04:07:45.601Z,1.58
2023-04-24T04:10:13.368Z,1.35
2023-04-24T04:12:41.153Z,1.77
2023-04-24T04:15:11.184Z,2.33
2023-04-24T04:17:40.019Z,2.45
2023-04-24T04:20:11.007Z,1.90
2023-04-24T04:22:39.182Z,2.28
2023-04-24T04:25:07.726Z,1.40
2023-04-24T04:27:35.590Z,1.50
2023-04-24T04:30:05.582Z,1.80
2023-04-24T04:32:35.386Z,1.38
2023-04-24T04:35:04.616Z,5.47
2023-04-24T04:37:32.703Z,4.45
2023-04-24T04:40:00.811Z,1.80
2023-04-24T04:42:29.394Z,1.70
2023-04-24T04:44:58.599Z,1.30
2023-04-24T04:47:27.605Z,1.80
2023-04-24T04:49:56.838Z,1.58
2023-04-24T04:52:26.300Z,1.30
2023-04-24T04:54:54.373Z,1.20
2023-04-24T04:57:22.567Z,5.95
2023-04-24T04:59:50.422Z,1.40
2023-04-24T05:02:18.274Z,1.33
2023-04-24T05:04:46.337Z,1.25
2023-04-24T05:07:15.938Z,1.20
2023-04-24T05:09:43.901Z,1.40
2023-04-24T05:12:11.855Z,1.20
2023-04-24T05:14:39.855Z,1.10
2023-04-24T05:17:07.744Z,1.23
2023-04-24T05:19:37.102Z,1.20
2023-04-24T05:22:07.715Z,1.80
2023-04-24T05:24:37.217Z,2.00
2023-04-24T05:27:05.870Z,2.90
2023-04-24T05:29:34.319Z,3.05
2023-04-24T05:32:02.588Z,2.60
2023-04-24T05:34:30.833Z,3.15
2023-04-24T05:36:58.757Z,3.83
2023-04-24T05:39:27.199Z,3.60
2023-04-24T05:41:58.968Z,5.20
2023-04-24T05:44:26.771Z,5.20
2023-04-24T05:46:56.460Z,7.60
2023-04-24T05:49:24.981Z,8.93
2023-04-24T05:51:52.774Z,8.68
2023-04-24T05:54:20.573Z,14.48
2023-04-24T05:56:48.533Z,10.23
2023-04-24T05:59:17.824Z,9.38
2023-04-24T06:01:45.915Z,10.30
2023-04-24T06:04:15.147Z,9.43
2023-04-24T06:06:43.099Z,9.85
2023-04-24T06:09:11.161Z,9.27
2023-04-24T06:11:39.037Z,9.70
2023-04-24T06:14:06.723Z,9.77
2023-04-24T06:16:35.946Z,8.68
2023-04-24T06:19:03.949Z,9.07
2023-04-24T06:21:32.646Z,9.32
2023-04-24T06:24:00.835Z,9.68
2023-04-24T06:26:28.726Z,8.98
2023-04-24T06:28:56.492Z,8.40
2023-04-24T06:31:24.264Z,9.13
2023-04-24T06:33:53.543Z,7.97
2023-04-24T06:36:21.321Z,8.07
2023-04-24T06:38:49.127Z,8.05
2023-04-24T06:41:19.037Z,7.78
2023-04-24T06:43:46.919Z,6.35
2023-04-24T06:46:14.761Z,5.90
2023-04-24T06:48:42.837Z,5.85
2023-04-24T06:51:12.129Z,7.22
2023-04-24T06:53:39.932Z,5.68
2023-04-24T06:56:07.847Z,5.40
2023-04-24T06:58:36.239Z,4.75
2023-04-24T07:01:04.114Z,6.78
2023-04-24T07:03:32.082Z,5.20
2023-04-24T07:06:00.256Z,6.20
2023-04-24T07:08:31.452Z,6.32
2023-04-24T07:10:59.726Z,5.22
2023-04-24T07:13:27.738Z,5.65
2023-04-24T07:15:57.258Z,6.10
2023-04-24T07:18:25.316Z,4.63
2023-04-24T07:20:53.183Z,5.72
2023-04-24T07:23:21.719Z,4.25
2023-04-24T07:25:51.028Z,4.35
2023-04-24T07:28:19.313Z,3.58
2023-04-24T07:30:47.413Z,3.67
2023-04-24T07:33:15.243Z,3.40
2023-04-24T07:35:43.049Z,3.97
2023-04-24T07:38:10.832Z,3.97
2023-04-24T07:40:38.752Z,4.95
2023-04-24T07:43:07.962Z,4.63
2023-04-24T07:45:38.147Z,4.68
2023-04-24T07:48:06.357Z,3.95
2023-04-24T07:50:34.363Z,3.75
2023-04-24T07:53:02.219Z,3.67
2023-04-24T07:55:30.142Z,4.32
2023-04-24T07:57:57.927Z,4.22
2023-04-24T08:00:27.176Z,3.22
2023-04-24T08:02:55.029Z,3.92
2023-04-24T08:05:23.211Z,4.35
2023-04-24T08:07:51.404Z,3.33
2023-04-24T08:10:19.384Z,3.15
2023-04-24T08:12:47.256Z,3.85
2023-04-24T08:15:15.273Z,4.95
2023-04-24T08:17:44.640Z,3.53
2023-04-24T08:20:14.806Z,4.28
2023-04-24T08:22:43.115Z,3.25
2023-04-24T08:25:11.927Z,3.83
2023-04-24T08:27:40.038Z,3.97
2023-04-24T08:30:09.158Z,4.20
2023-04-24T08:32:37.011Z,3.53
2023-04-24T08:35:07.016Z,3.92
2023-04-24T08:37:34.928Z,3.47
2023-04-24T08:40:03.648Z,2.83
2023-04-24T08:42:34.313Z,2.95
2023-04-24T08:45:03.445Z,3.03
2023-04-24T08:47:31.979Z,3.15
2023-04-24T08:50:03.811Z,3.83
2023-04-24T08:52:34.071Z,3.15
2023-04-24T08:55:02.788Z,2.13
2023-04-24T08:57:31.274Z,2.17
2023-04-24T09:00:00.394Z,2.10
2023-04-24T09:02:28.661Z,2.42
2023-04-24T09:04:58.550Z,2.10
2023-04-24T09:07:27.154Z,1.98
2023-04-24T09:09:56.955Z,1.85
2023-04-24T09:12:24.860Z,2.15
2023-04-24T09:14:56.870Z,2.15
2023-04-24T09:17:27.969Z,2.05
2023-04-24T09:19:55.876Z,2.58
2023-04-24T09:22:26.814Z,2.17
2023-04-24T09:25:06.517Z,1.80
2023-04-24T09:27:34.799Z,1.67
2023-04-24T09:30:05.959Z,1.48
2023-04-24T09:32:33.806Z,1.75
2023-04-24T09:35:10.388Z,2.25
2023-04-24T09:37:39.381Z,2.10
2023-04-24T09:40:14.186Z,2.35
2023-04-24T09:42:42.397Z,1.60
2023-04-24T09:45:17.673Z,1.25
2023-04-24T09:47:45.701Z,1.40
2023-04-24T09:50:15.650Z,1.20
2023-04-24T09:52:46.436Z,1.27
2023-04-24T09:55:20.946Z,1.40
2023-04-24T09:57:53.080Z,1.95
2023-04-24T10:00:25.923Z,1.50
2023-04-24T10:02:57.877Z,1.98
2023-04-24T10:05:27.104Z,1.40
2023-04-24T10:07:59.146Z,1.83
2023-04-24T10:10:28.863Z,1.48
2023-04-24T10:12:59.608Z,1.52
2023-04-24T10:15:28.855Z,1.42
2023-04-24T10:17:56.671Z,1.33
2023-04-24T10:20:26.557Z,1.00
2023-04-24T10:22:58.196Z,2.38
2023-04-24T10:25:29.351Z,1.38
2023-04-24T10:28:00.353Z,1.90
2023-04-24T10:30:29.524Z,1.50
2023-04-24T10:32:57.495Z,1.50
2023-04-24T10:35:27.912Z,1.50
2023-04-24T10:38:00.190Z,2.15
2023-04-24T10:40:33.333Z,1.40
2023-04-24T10:43:01.754Z,1.75
2023-04-24T10:45:29.845Z,1.08
2023-04-24T10:48:04.965Z,1.58
2023-04-24T10:50:45.736Z,1.17
2023-04-24T10:53:18.268Z,1.40
2023-04-24T10:55:49.568Z,1.20
2023-04-24T10:58:18.871Z,1.27
2023-04-24T11:00:59.158Z,1.25
2023-04-24T11:03:30.059Z,1.40
2023-04-24T11:06:01.165Z,1.48
2023-04-24T11:08:34.634Z,1.20
2023-04-24T11:14:07.376Z,2.35
2023-04-24T11:16:39.363Z,1.70
2023-04-24T11:19:09.138Z,1.27
2023-04-24T11:21:44.630Z,1.90
2023-04-24T11:24:40.552Z,2.10
2023-04-24T11:27:17.679Z,1.60
2023-04-24T11:29:47.422Z,2.00
2023-04-24T11:32:20.467Z,1.60
2023-04-24T11:34:50.040Z,1.40
2023-04-24T11:37:17.985Z,0.75
2023-04-24T11:39:45.907Z,0.88
2023-04-24T11:42:16.876Z,1.33
2023-04-24T11:44:45.449Z,0.90
2023-04-24T11:47:13.207Z,0.70
2023-04-24T11:49:41.068Z,0.90
2023-04-24T11:52:09.038Z,0.90
2023-04-24T11:54:40.048Z,0.85
2023-04-24T11:57:08.582Z,1.55
2023-04-24T11:59:39.790Z,1.13
2023-04-24T12:02:08.194Z,1.35
2023-04-24T12:04:43.409Z,1.90
2023-04-24T12:07:11.623Z,1.67
2023-04-24T12:09:44.253Z,1.50
2023-04-24T12:12:13.803Z,1.65
2023-04-24T12:14:47.499Z,1.35
2023-04-24T12:17:15.879Z,1.30
2023-04-24T12:19:48.046Z,2.15
2023-04-24T12:22:15.961Z,1.45
2023-04-24T12:25:01.552Z,1.95
2023-04-24T12:27:31.948Z,2.05
2023-04-24T12:30:02.538Z,2.50
2023-04-24T12:32:30.441Z,2.25
2023-04-24T12:34:58.802Z,2.03
2023-04-24T12:37:27.788Z,2.13
2023-04-24T12:40:03.224Z,1.90
2023-04-24T12:42:32.349Z,2.08
2023-04-24T12:45:03.464Z,1.98
2023-04-24T12:47:31.666Z,1.90
2023-04-24T12:49:59.564Z,2.60
2023-04-24T12:52:28.875Z,2.45
2023-04-24T12:54:58.607Z,2.13
2023-04-24T12:57:27.707Z,2.53
2023-04-24T12:59:56.790Z,4.43
2023-04-24T13:02:27.301Z,3.15
2023-04-24T13:04:56.057Z,3.08
2023-04-24T13:07:24.054Z,2.72
2023-04-24T13:09:53.520Z,3.08
2023-04-24T13:12:27.879Z,2.75
2023-04-24T13:14:56.825Z,2.60
2023-04-24T13:17:26.087Z,2.28
2023-04-24T13:19:56.471Z,3.33
2023-04-24T13:22:24.351Z,3.65
2023-04-24T13:24:52.404Z,2.70
2023-04-24T13:27:20.547Z,2.80
2023-04-24T13:29:48.439Z,3.20
2023-04-24T13:32:16.376Z,3.42
2023-04-24T13:34:45.778Z,2.97
2023-04-24T13:37:13.713Z,3.75
2023-04-24T13:39:42.381Z,2.80
2023-04-24T13:42:10.636Z,3.28
2023-04-24T13:44:38.917Z,2.92
2023-04-24T13:47:06.841Z,2.67
2023-04-24T13:49:34.762Z,3.00
2023-04-24T13:52:05.002Z,2.85
2023-04-24T13:54:33.863Z,2.70
2023-04-24T13:57:02.173Z,2.85
2023-04-24T13:59:30.140Z,2.58
2023-04-24T14:01:58.273Z,2.67
2023-04-24T14:04:26.842Z,2.60
2023-04-24T14:06:55.015Z,3.10
2023-04-24T14:09:24.684Z,3.28
2023-04-24T14:11:54.080Z,2.72
2023-04-24T14:14:22.140Z,2.95
2023-04-24T14:16:50.119Z,2.67
2023-04-24T14:19:18.041Z,2.83
2023-04-24T14:21:46.103Z,2.80
2023-04-24T14:24:13.992Z,2.55
2023-04-24T14:26:45.505Z,2.50
2023-04-24T14:29:15.133Z,3.00
2023-04-24T14:31:43.878Z,3.03
2023-04-24T14:34:11.844Z,2.78
2023-04-24T14:36:39.947Z,3.03
2023-04-24T14:39:08.800Z,3.58
2023-04-24T14:41:38.322Z,3.78
2023-04-24T14:44:07.612Z,3.45
2023-04-24T14:46:35.729Z,3.17
2023-04-24T14:49:03.753Z,2.70
2023-04-24T14:51:31.830Z,3.65
2023-04-24T14:54:00.678Z,3.28
2023-04-24T14:56:28.850Z,3.83
2023-04-24T14:58:57.195Z,3.17
2023-04-24T15:01:26.576Z,3.60
2023-04-24T15:03:54.749Z,3.22
2023-04-24T15:06:22.938Z,4.22
2023-04-24T15:08:50.887Z,4.72
2023-04-24T15:11:19.037Z,3.92
2023-04-24T15:13:47.624Z,3.35
2023-04-24T15:16:15.934Z,4.35
2023-04-24T15:18:45.083Z,5.30
2023-04-24T15:21:14.096Z,4.18
2023-04-24T15:23:45.448Z,3.92
2023-04-24T15:26:13.431Z,4.60
2023-04-24T15:28:41.537Z,3.60
2023-04-24T15:31:09.372Z,3.75
2023-04-24T15:33:37.108Z,3.20
2023-04-24T15:36:09.122Z,2.97
2023-04-24T15:38:37.403Z,3.00
2023-04-24T15:41:05.289Z,3.05
2023-04-24T15:43:35.200Z,3.30
2023-04-24T15:46:03.482Z,3.78
2023-04-24T15:48:31.453Z,3.67
2023-04-24T15:50:59.649Z,4.15
2023-04-24T15:53:29.010Z,4.63
2023-04-24T15:55:58.324Z,3.53
2023-04-24T15:58:26.198Z,4.90
2023-04-24T16:00:55.136Z,3.97
2023-04-24T16:03:23.612Z,4.32
2023-04-24T16:05:51.762Z,4.30
2023-04-24T16:08:19.742Z,4.25
2023-04-24T16:10:49.217Z,4.07
2023-04-24T16:13:18.667Z,4.57
2023-04-24T16:15:46.773Z,4.57
2023-04-24T16:18:14.856Z,3.83
2023-04-24T16:20:45.396Z,4.05
2023-04-24T16:23:14.894Z,3.70
2023-04-24T16:25:44.853Z,3.55
2023-04-24T16:28:15.331Z,3.92
2023-04-24T16:30:46.456Z,4.30
2023-04-24T16:33:14.759Z,3.80
2023-04-24T16:35:46.864Z,3.63
2023-04-24T16:38:14.753Z,3.35
2023-04-24T16:40:45.760Z,3.53
2023-04-24T16:43:15.456Z,3.35
2023-04-24T16:45:43.679Z,3.20
2023-04-24T16:48:11.923Z,3.90
2023-04-24T16:50:42.046Z,3.20
2023-04-24T16:53:09.865Z,4.63
2023-04-24T16:55:37.765Z,3.80
2023-04-24T16:58:05.695Z,3.47
2023-04-24T17:00:38.814Z,3.20
2023-04-24T17:03:12.936Z,4.47
2023-04-24T17:05:41.038Z,4.97
2023-04-24T17:08:09.504Z,3.55
2023-04-24T17:10:37.432Z,4.38
2023-04-24T17:13:05.345Z,3.75
2023-04-24T17:15:35.435Z,4.20
2023-04-24T17:18:04.573Z,5.03
2023-04-24T17:20:32.494Z,3.85
2023-04-24T17:23:00.512Z,4.25
2023-04-24T17:25:28.689Z,4.63
2023-04-24T17:27:56.630Z,4.32
2023-04-24T17:30:24.569Z,4.18
2023-04-24T17:32:53.819Z,4.40
2023-04-24T17:35:22.784Z,4.40
2023-04-24T17:37:50.778Z,3.72
2023-04-24T17:40:18.869Z,4.15
2023-04-24T17:42:46.777Z,3.88
2023-04-24T17:45:14.724Z,4.57
2023-04-24T17:47:45.293Z,4.35
2023-04-24T17:50:14.677Z,4.45
2023-04-24T17:52:45.610Z,4.00
2023-04-24T17:55:13.430Z,4.13
2023-04-24T17:57:43.024Z,3.60
2023-04-24T18:00:12.125Z,5.45
2023-04-24T18:02:40.254Z,3.97
2023-04-24T18:05:08.679Z,3.30
2023-04-24T18:07:39.307Z,3.88
2023-04-24T18:10:08.689Z,4.32
2023-04-24T18:12:36.610Z,3.72
2023-04-24T18:15:14.471Z,3.35
2023-04-24T18:17:46.061Z,3.78
2023-04-24T18:20:14.963Z,3.85
2023-04-24T18:22:44.736Z,3.67
2023-04-24T18:25:13.709Z,3.58
2023-04-24T18:27:42.825Z,3.20
2023-04-24T18:30:14.676Z,3.30
2023-04-24T18:32:46.240Z,3.47
2023-04-24T18:35:14.149Z,3.95
2023-04-24T18:37:42.298Z,3.30
2023-04-24T18:40:12.553Z,3.03
2023-04-24T18:42:40.598Z,4.30
2023-04-24T18:45:10.028Z,3.75
2023-04-24T18:47:38.964Z,4.05
2023-04-24T18:50:07.704Z,3.47
2023-04-24T18:52:35.587Z,4.03
2023-04-24T18:55:04.438Z,3.10
2023-04-24T18:57:33.820Z,3.10
2023-04-24T19:00:02.005Z,3.28
2023-04-24T19:02:30.039Z,3.15
2023-04-24T19:04:57.948Z,3.47
2023-04-24T19:07:25.734Z,3.58
2023-04-24T19:09:53.537Z,3.00
2023-04-24T19:12:22.819Z,2.92
2023-04-24T19:14:55.879Z,2.60
2023-04-24T19:17:25.206Z,2.13
2023-04-24T19:19:53.110Z,2.03
2023-04-24T19:22:21.313Z,1.92
2023-04-24T19:24:49.044Z,1.80
2023-04-24T19:27:17.261Z,1.90
2023-04-24T19:29:45.285Z,2.00
2023-04-24T19:32:14.676Z,2.45
2023-04-24T19:34:42.524Z,3.10
2023-04-24T19:37:10.495Z,1.58
2023-04-24T19:39:38.302Z,1.67
2023-04-24T19:42:07.638Z,1.75
2023-04-24T19:44:35.909Z,2.10
2023-04-24T19:47:03.996Z,1.83
2023-04-24T19:49:33.236Z,2.03
2023-04-24T19:52:01.248Z,2.10
2023-04-24T19:54:29.437Z,1.58
2023-04-24T19:56:59.059Z,2.22
2023-04-24T19:59:26.821Z,2.08
2023-04-24T20:01:55.235Z,2.30
2023-04-24T20:04:24.292Z,2.17
2023-04-24T20:06:53.825Z,2.40
2023-04-24T20:09:22.088Z,2.20
2023-04-24T20:11:51.326Z,2.33
2023-04-24T20:14:19.290Z,2.38
2023-04-24T20:16:47.180Z,2.40
2023-04-24T20:19:14.989Z,2.42
2023-04-24T20:21:45.832Z,2.53
2023-04-24T20:24:16.348Z,2.92
2023-04-24T20:26:44.282Z,1.70
2023-04-24T20:29:13.838Z,1.80
2023-04-24T20:31:41.938Z,2.88
2023-04-24T20:34:13.118Z,2.42
2023-04-24T20:36:45.608Z,2.08
2023-04-24T20:39:17.557Z,2.88
2023-04-24T20:41:46.416Z,2.50
2023-04-24T20:44:15.099Z,2.88
2023-04-24T20:46:43.985Z,2.88
2023-04-24T20:49:11.978Z,2.30
2023-04-24T20:51:40.112Z,2.03
2023-04-24T20:54:08.178Z,2.45
2023-04-24T20:56:38.209Z,2.55
2023-04-24T20:59:06.840Z,2.47
2023-04-24T21:01:36.574Z,2.72
2023-04-24T21:04:04.691Z,2.72
2023-04-24T21:06:33.288Z,2.33
2023-04-24T21:09:01.230Z,2.45
2023-04-24T21:11:31.230Z,2.30
2023-04-24T21:14:00.632Z,2.40
2023-04-24T21:16:29.296Z,2.50
2023-04-24T21:18:57.464Z,2.78
2023-04-24T21:21:26.326Z,2.03
2023-04-24T21:23:54.285Z,2.70
2023-04-24T21:26:22.711Z,2.60
2023-04-24T21:28:50.784Z,2.78
2023-04-24T21:31:20.025Z,2.75
2023-04-24T21:33:48.240Z,2.63
2023-04-24T21:36:16.371Z,2.17
2023-04-24T21:38:44.978Z,2.40
2023-04-24T21:41:12.891Z,2.92
2023-04-24T21:43:45.351Z,3.80
2023-04-24T21:46:14.190Z,2.53
2023-04-24T21:48:43.644Z,2.80
2023-04-24T21:51:11.971Z,3.70
2023-04-24T21:53:39.708Z,3.35
2023-04-24T21:56:07.863Z,2.30
2023-04-24T21:58:35.955Z,2.65
2023-04-24T22:01:03.931Z,3.05
2023-04-24T22:03:32.110Z,3.30
2023-04-24T22:06:01.483Z,3.00
2023-04-24T22:08:29.269Z,4.03
2023-04-24T22:10:57.285Z,3.33
2023-04-24T22:13:25.279Z,3.30
2023-04-24T22:15:53.108Z,2.60
2023-04-24T22:18:20.926Z,2.70
2023-04-24T22:20:48.751Z,3.05
2023-04-24T22:23:18.043Z,3.65
2023-04-24T22:25:45.843Z,3.03
2023-04-24T22:28:13.652Z,4.47
2023-04-24T22:30:41.583Z,3.85
2023-04-24T22:33:10.038Z,3.03
2023-04-24T22:35:37.841Z,3.40
2023-04-24T22:38:05.648Z,3.67
2023-04-24T22:40:37.461Z,3.22
2023-04-24T22:43:05.294Z,3.75
2023-04-24T22:45:33.290Z,3.75
2023-04-24T22:48:01.433Z,3.65
2023-04-24T22:50:29.272Z,3.38
2023-04-24T22:52:57.114Z,3.45
2023-04-24T22:55:24.910Z,5.63
2023-04-24T22:57:54.020Z,4.22
2023-04-24T23:00:21.809Z,3.58
2023-04-24T23:02:49.732Z,5.05
2023-04-24T23:05:17.589Z,4.45
2023-04-24T23:07:45.342Z,4.40
2023-04-24T23:10:13.248Z,3.97
2023-04-24T23:12:41.377Z,3.80
2023-04-24T23:15:11.953Z,3.70
2023-04-24T23:17:40.030Z,4.97
2023-04-24T23:20:09.166Z,4.32
2023-04-24T23:22:36.991Z,4.22
2023-04-24T23:25:05.079Z,3.88
2023-04-24T23:27:32.824Z,3.47
2023-04-24T23:30:00.748Z,3.78
2023-04-24T23:32:30.192Z,4.15
2023-04-24T23:34:58.263Z,3.58
2023-04-24T23:37:26.361Z,3.25
2023-04-24T23:39:54.388Z,4.07
2023-04-24T23:42:22.153Z,3.30
2023-04-24T23:44:49.997Z,4.75
2023-04-24T23:47:18.171Z,3.80
2023-04-24T23:49:47.253Z,4.55
2023-04-24T23:52:15.132Z,3.22
2023-04-24T23:54:43.141Z,6.75
2023-04-24T23:57:11.277Z,4.22
2023-04-24T23:59:39.121Z,4.15
